sensor_id;sensor_type;location;lat;lon;timestamp;P1;durP1;ratioP1;P2;durP2;ratioP2
7171;SDS011;3627;46.544;14.944;2022-11-20T00:01:16;2.22;;;2.00;;
7171;SDS011;3627;46.544;14.944;2022-11-20T00:03:43;2.17;;;2.08;;
7171;SDS011;3627;46.544;14.944;2022-11-20T00:06:12;2.30;;;2.10;;
7171;SDS011;3627;46.544;14.944;2022-11-20T00:08:38;2.00;;;1.90;;
7171;SDS011;3627;46.544;14.944;2022-11-20T00:11:05;2.65;;;2.45;;
7171;SDS011;3627;46.544;14.944;2022-11-20T00:13:32;2.30;;;2.20;;
7171;SDS011;3627;46.544;14.944;2022-11-20T00:15:59;2.83;;;2.47;;
7171;SDS011;3627;46.544;14.944;2022-11-20T00:18:25;3.33;;;2.38;;
7171;SDS011;3627;46.544;14.944;2022-11-20T00:20:52;2.60;;;2.05;;
7171;SDS011;3627;46.544;14.944;2022-11-20T00:23:20;1.98;;;1.88;;
7171;SDS011;3627;46.544;14.944;2022-11-20T00:25:46;1.88;;;1.77;;
7171;SDS011;3627;46.544;14.944;2022-11-20T00:28:13;2.33;;;2.13;;
7171;SDS011;3627;46.544;14.944;2022-11-20T00:30:39;2.00;;;1.90;;
7171;SDS011;3627;46.544;14.944;2022-11-20T00:33:06;1.92;;;1.70;;
7171;SDS011;3627;46.544;14.944;2022-11-20T00:35:32;2.10;;;2.00;;
7171;SDS011;3627;46.544;14.944;2022-11-20T00:37:58;1.92;;;1.83;;
7171;SDS011;3627;46.544;14.944;2022-11-20T00:40:27;2.00;;;1.90;;
7171;SDS011;3627;46.544;14.944;2022-11-20T00:42:53;2.17;;;2.08;;
7171;SDS011;3627;46.544;14.944;2022-11-20T00:45:20;2.00;;;1.90;;
7171;SDS011;3627;46.544;14.944;2022-11-20T00:47:46;2.10;;;2.00;;
7171;SDS011;3627;46.544;14.944;2022-11-20T00:50:12;1.90;;;1.80;;
7171;SDS011;3627;46.544;14.944;2022-11-20T00:52:39;2.50;;;2.00;;
7171;SDS011;3627;46.544;14.944;2022-11-20T00:55:06;2.73;;;2.30;;
7171;SDS011;3627;46.544;14.944;2022-11-20T00:57:33;1.90;;;1.80;;
7171;SDS011;3627;46.544;14.944;2022-11-20T01:00:00;2.30;;;2.10;;
7171;SDS011;3627;46.544;14.944;2022-11-20T01:02:26;2.47;;;2.37;;
7171;SDS011;3627;46.544;14.944;2022-11-20T01:04:52;1.90;;;1.80;;
7171;SDS011;3627;46.544;14.944;2022-11-20T01:07:19;2.65;;;2.45;;
7171;SDS011;3627;46.544;14.944;2022-11-20T01:09:45;2.15;;;2.05;;
7171;SDS011;3627;46.544;14.944;2022-11-20T01:12:12;4.72;;;1.98;;
7171;SDS011;3627;46.544;14.944;2022-11-20T01:14:39;2.53;;;2.33;;
7171;SDS011;3627;46.544;14.944;2022-11-20T01:17:06;2.40;;;2.20;;
7171;SDS011;3627;46.544;14.944;2022-11-20T01:19:32;2.08;;;1.98;;
7171;SDS011;3627;46.544;14.944;2022-11-20T01:21:58;2.45;;;2.35;;
7171;SDS011;3627;46.544;14.944;2022-11-20T01:24:25;2.10;;;1.90;;
7171;SDS011;3627;46.544;14.944;2022-11-20T01:26:51;2.35;;;2.15;;
7171;SDS011;3627;46.544;14.944;2022-11-20T01:29:19;2.53;;;2.42;;
7171;SDS011;3627;46.544;14.944;2022-11-20T01:31:47;1.90;;;1.80;;
7171;SDS011;3627;46.544;14.944;2022-11-20T01:34:14;2.45;;;2.25;;
7171;SDS011;3627;46.544;14.944;2022-11-20T01:36:41;2.15;;;2.05;;
7171;SDS011;3627;46.544;14.944;2022-11-20T01:39:10;2.30;;;2.10;;
7171;SDS011;3627;46.544;14.944;2022-11-20T01:41:37;4.25;;;2.40;;
7171;SDS011;3627;46.544;14.944;2022-11-20T01:44:22;2.33;;;2.22;;
7171;SDS011;3627;46.544;14.944;2022-11-20T01:46:52;2.35;;;2.15;;
7171;SDS011;3627;46.544;14.944;2022-11-20T01:49:21;4.80;;;2.40;;
7171;SDS011;3627;46.544;14.944;2022-11-20T01:51:50;2.53;;;2.33;;
7171;SDS011;3627;46.544;14.944;2022-11-20T01:54:18;2.40;;;2.20;;
7171;SDS011;3627;46.544;14.944;2022-11-20T01:56:46;2.20;;;2.10;;
7171;SDS011;3627;46.544;14.944;2022-11-20T01:59:14;2.45;;;2.30;;
7171;SDS011;3627;46.544;14.944;2022-11-20T02:01:41;2.55;;;2.35;;
7171;SDS011;3627;46.544;14.944;2022-11-20T02:04:09;2.20;;;2.10;;
7171;SDS011;3627;46.544;14.944;2022-11-20T02:06:38;1.85;;;1.75;;
7171;SDS011;3627;46.544;14.944;2022-11-20T02:09:05;2.10;;;2.00;;
7171;SDS011;3627;46.544;14.944;2022-11-20T02:11:31;1.90;;;1.80;;
7171;SDS011;3627;46.544;14.944;2022-11-20T02:13:58;1.90;;;1.80;;
7171;SDS011;3627;46.544;14.944;2022-11-20T02:16:25;1.92;;;1.83;;
7171;SDS011;3627;46.544;14.944;2022-11-20T02:18:52;1.90;;;1.80;;
7171;SDS011;3627;46.544;14.944;2022-11-20T02:21:30;2.05;;;1.95;;
7171;SDS011;3627;46.544;14.944;2022-11-20T02:24:03;1.88;;;1.77;;
7171;SDS011;3627;46.544;14.944;2022-11-20T02:26:30;2.10;;;2.00;;
7171;SDS011;3627;46.544;14.944;2022-11-20T02:28:57;2.08;;;1.98;;
7171;SDS011;3627;46.544;14.944;2022-11-20T02:31:24;2.27;;;2.10;;
7171;SDS011;3627;46.544;14.944;2022-11-20T02:33:53;2.42;;;2.33;;
7171;SDS011;3627;46.544;14.944;2022-11-20T02:36:20;1.80;;;1.70;;
7171;SDS011;3627;46.544;14.944;2022-11-20T02:38:46;2.20;;;1.92;;
7171;SDS011;3627;46.544;14.944;2022-11-20T02:41:15;2.40;;;1.88;;
7171;SDS011;3627;46.544;14.944;2022-11-20T02:43:42;2.25;;;2.03;;
7171;SDS011;3627;46.544;14.944;2022-11-20T02:46:08;1.80;;;1.70;;
7171;SDS011;3627;46.544;14.944;2022-11-20T02:48:35;1.85;;;1.75;;
7171;SDS011;3627;46.544;14.944;2022-11-20T02:51:01;2.40;;;2.03;;
7171;SDS011;3627;46.544;14.944;2022-11-20T02:53:28;2.13;;;1.98;;
7171;SDS011;3627;46.544;14.944;2022-11-20T02:55:54;2.28;;;1.92;;
7171;SDS011;3627;46.544;14.944;2022-11-20T02:58:22;5.55;;;3.00;;
7171;SDS011;3627;46.544;14.944;2022-11-20T03:00:49;2.78;;;2.47;;
7171;SDS011;3627;46.544;14.944;2022-11-20T03:03:15;3.03;;;2.42;;
7171;SDS011;3627;46.544;14.944;2022-11-20T03:05:42;2.05;;;1.80;;
7171;SDS011;3627;46.544;14.944;2022-11-20T03:08:08;1.80;;;1.60;;
7171;SDS011;3627;46.544;14.944;2022-11-20T03:10:34;1.80;;;1.70;;
7171;SDS011;3627;46.544;14.944;2022-11-20T03:13:01;1.90;;;1.80;;
7171;SDS011;3627;46.544;14.944;2022-11-20T03:15:28;1.90;;;1.80;;
7171;SDS011;3627;46.544;14.944;2022-11-20T03:17:55;2.05;;;1.95;;
7171;SDS011;3627;46.544;14.944;2022-11-20T03:20:21;1.83;;;1.73;;
7171;SDS011;3627;46.544;14.944;2022-11-20T03:22:48;2.10;;;2.00;;
7171;SDS011;3627;46.544;14.944;2022-11-20T03:25:14;1.75;;;1.73;;
7171;SDS011;3627;46.544;14.944;2022-11-20T03:27:41;2.00;;;1.90;;
7171;SDS011;3627;46.544;14.944;2022-11-20T03:30:08;1.92;;;1.83;;
7171;SDS011;3627;46.544;14.944;2022-11-20T03:32:35;2.20;;;2.10;;
7171;SDS011;3627;46.544;14.944;2022-11-20T03:35:02;2.10;;;1.90;;
7171;SDS011;3627;46.544;14.944;2022-11-20T03:37:28;2.00;;;1.90;;
7171;SDS011;3627;46.544;14.944;2022-11-20T03:39:55;1.83;;;1.70;;
7171;SDS011;3627;46.544;14.944;2022-11-20T03:42:21;1.75;;;1.70;;
7171;SDS011;3627;46.544;14.944;2022-11-20T03:45:01;2.23;;;2.00;;
7171;SDS011;3627;46.544;14.944;2022-11-20T03:47:28;1.70;;;1.70;;
7171;SDS011;3627;46.544;14.944;2022-11-20T03:49:56;1.70;;;1.60;;
7171;SDS011;3627;46.544;14.944;2022-11-20T03:52:22;1.70;;;1.60;;
7171;SDS011;3627;46.544;14.944;2022-11-20T03:54:48;2.13;;;2.00;;
7171;SDS011;3627;46.544;14.944;2022-11-20T03:57:15;1.88;;;1.77;;
7171;SDS011;3627;46.544;14.944;2022-11-20T03:59:41;1.80;;;1.70;;
7171;SDS011;3627;46.544;14.944;2022-11-20T04:02:07;1.97;;;1.87;;
7171;SDS011;3627;46.544;14.944;2022-11-20T04:04:34;1.70;;;1.60;;
7171;SDS011;3627;46.544;14.944;2022-11-20T04:07:02;2.30;;;1.90;;
7171;SDS011;3627;46.544;14.944;2022-11-20T04:09:28;1.77;;;1.67;;
7171;SDS011;3627;46.544;14.944;2022-11-20T04:11:54;1.80;;;1.70;;
7171;SDS011;3627;46.544;14.944;2022-11-20T04:14:21;2.08;;;1.88;;
7171;SDS011;3627;46.544;14.944;2022-11-20T04:16:47;2.10;;;2.00;;
7171;SDS011;3627;46.544;14.944;2022-11-20T04:19:14;2.08;;;1.98;;
7171;SDS011;3627;46.544;14.944;2022-11-20T04:21:41;1.98;;;1.88;;
7171;SDS011;3627;46.544;14.944;2022-11-20T04:24:09;1.90;;;1.80;;
7171;SDS011;3627;46.544;14.944;2022-11-20T04:26:36;2.10;;;2.00;;
7171;SDS011;3627;46.544;14.944;2022-11-20T04:29:03;2.43;;;2.07;;
7171;SDS011;3627;46.544;14.944;2022-11-20T04:31:30;2.80;;;2.58;;
7171;SDS011;3627;46.544;14.944;2022-11-20T04:33:58;2.85;;;2.65;;
7171;SDS011;3627;46.544;14.944;2022-11-20T04:36:25;2.10;;;2.00;;
7171;SDS011;3627;46.544;14.944;2022-11-20T04:38:52;2.35;;;2.25;;
7171;SDS011;3627;46.544;14.944;2022-11-20T04:41:21;1.75;;;1.67;;
7171;SDS011;3627;46.544;14.944;2022-11-20T04:43:48;2.03;;;1.92;;
7171;SDS011;3627;46.544;14.944;2022-11-20T04:46:15;2.47;;;2.28;;
7171;SDS011;3627;46.544;14.944;2022-11-20T04:48:41;2.10;;;2.00;;
7171;SDS011;3627;46.544;14.944;2022-11-20T04:51:08;2.08;;;1.98;;
7171;SDS011;3627;46.544;14.944;2022-11-20T04:53:34;2.38;;;2.15;;
7171;SDS011;3627;46.544;14.944;2022-11-20T04:56:01;2.25;;;2.15;;
7171;SDS011;3627;46.544;14.944;2022-11-20T04:58:29;2.38;;;2.17;;
7171;SDS011;3627;46.544;14.944;2022-11-20T05:01:00;2.58;;;2.38;;
7171;SDS011;3627;46.544;14.944;2022-11-20T05:03:26;1.92;;;1.83;;
7171;SDS011;3627;46.544;14.944;2022-11-20T05:05:52;2.10;;;2.00;;
7171;SDS011;3627;46.544;14.944;2022-11-20T05:08:19;2.20;;;2.10;;
7171;SDS011;3627;46.544;14.944;2022-11-20T05:10:45;2.72;;;2.53;;
7171;SDS011;3627;46.544;14.944;2022-11-20T05:13:12;2.47;;;2.28;;
7171;SDS011;3627;46.544;14.944;2022-11-20T05:15:40;2.55;;;2.40;;
7171;SDS011;3627;46.544;14.944;2022-11-20T05:18:06;1.92;;;1.83;;
7171;SDS011;3627;46.544;14.944;2022-11-20T05:20:32;2.78;;;2.58;;
7171;SDS011;3627;46.544;14.944;2022-11-20T05:23:01;3.28;;;2.45;;
7171;SDS011;3627;46.544;14.944;2022-11-20T05:25:27;2.70;;;2.50;;
7171;SDS011;3627;46.544;14.944;2022-11-20T05:27:54;2.58;;;2.45;;
7171;SDS011;3627;46.544;14.944;2022-11-20T05:30:20;4.40;;;3.15;;
7171;SDS011;3627;46.544;14.944;2022-11-20T05:32:48;2.72;;;2.53;;
7171;SDS011;3627;46.544;14.944;2022-11-20T05:35:14;2.88;;;2.30;;
7171;SDS011;3627;46.544;14.944;2022-11-20T05:37:40;2.47;;;2.20;;
7171;SDS011;3627;46.544;14.944;2022-11-20T05:40:07;3.70;;;2.90;;
7171;SDS011;3627;46.544;14.944;2022-11-20T05:42:34;4.57;;;3.28;;
7171;SDS011;3627;46.544;14.944;2022-11-20T05:45:01;3.43;;;2.83;;
7171;SDS011;3627;46.544;14.944;2022-11-20T05:47:30;2.67;;;2.47;;
7171;SDS011;3627;46.544;14.944;2022-11-20T05:49:58;3.22;;;2.92;;
7171;SDS011;3627;46.544;14.944;2022-11-20T05:52:27;3.22;;;2.92;;
7171;SDS011;3627;46.544;14.944;2022-11-20T05:54:54;2.60;;;2.40;;
7171;SDS011;3627;46.544;14.944;2022-11-20T05:57:20;3.42;;;3.05;;
7171;SDS011;3627;46.544;14.944;2022-11-20T05:59:47;2.90;;;2.70;;
7171;SDS011;3627;46.544;14.944;2022-11-20T06:02:13;2.97;;;2.40;;
7171;SDS011;3627;46.544;14.944;2022-11-20T06:04:39;2.05;;;1.95;;
7171;SDS011;3627;46.544;14.944;2022-11-20T06:07:07;2.67;;;2.40;;
7171;SDS011;3627;46.544;14.944;2022-11-20T06:09:34;2.40;;;2.15;;
7171;SDS011;3627;46.544;14.944;2022-11-20T06:12:00;2.22;;;2.13;;
7171;SDS011;3627;46.544;14.944;2022-11-20T06:14:27;2.03;;;1.92;;
7171;SDS011;3627;46.544;14.944;2022-11-20T06:16:53;3.88;;;2.55;;
7171;SDS011;3627;46.544;14.944;2022-11-20T06:19:19;2.70;;;2.50;;
7171;SDS011;3627;46.544;14.944;2022-11-20T06:21:47;5.03;;;2.90;;
7171;SDS011;3627;46.544;14.944;2022-11-20T06:24:15;3.65;;;3.35;;
7171;SDS011;3627;46.544;14.944;2022-11-20T06:26:41;3.53;;;2.97;;
7171;SDS011;3627;46.544;14.944;2022-11-20T06:29:08;3.00;;;2.70;;
7171;SDS011;3627;46.544;14.944;2022-11-20T06:31:34;2.17;;;2.08;;
7171;SDS011;3627;46.544;14.944;2022-11-20T06:34:02;2.42;;;2.22;;
7171;SDS011;3627;46.544;14.944;2022-11-20T06:36:29;2.17;;;2.08;;
7171;SDS011;3627;46.544;14.944;2022-11-20T06:38:55;2.20;;;2.00;;
7171;SDS011;3627;46.544;14.944;2022-11-20T06:41:23;1.50;;;1.50;;
7171;SDS011;3627;46.544;14.944;2022-11-20T06:43:50;3.40;;;2.28;;
7171;SDS011;3627;46.544;14.944;2022-11-20T06:46:17;3.33;;;2.70;;
7171;SDS011;3627;46.544;14.944;2022-11-20T06:48:44;2.30;;;2.10;;
7171;SDS011;3627;46.544;14.944;2022-11-20T06:51:11;2.03;;;1.93;;
7171;SDS011;3627;46.544;14.944;2022-11-20T06:53:37;2.67;;;2.47;;
7171;SDS011;3627;46.544;14.944;2022-11-20T06:56:04;2.42;;;2.22;;
7171;SDS011;3627;46.544;14.944;2022-11-20T06:58:32;2.70;;;2.42;;
7171;SDS011;3627;46.544;14.944;2022-11-20T07:00:59;2.20;;;2.08;;
7171;SDS011;3627;46.544;14.944;2022-11-20T07:03:26;2.03;;;1.92;;
7171;SDS011;3627;46.544;14.944;2022-11-20T07:05:53;2.70;;;2.50;;
7171;SDS011;3627;46.544;14.944;2022-11-20T07:08:20;4.05;;;2.88;;
7171;SDS011;3627;46.544;14.944;2022-11-20T07:10:46;4.05;;;3.70;;
7171;SDS011;3627;46.544;14.944;2022-11-20T07:13:13;4.18;;;3.78;;
7171;SDS011;3627;46.544;14.944;2022-11-20T07:15:41;3.40;;;3.20;;
7171;SDS011;3627;46.544;14.944;2022-11-20T07:18:07;3.70;;;2.90;;
7171;SDS011;3627;46.544;14.944;2022-11-20T07:20:34;4.83;;;2.30;;
7171;SDS011;3627;46.544;14.944;2022-11-20T07:23:00;2.50;;;2.30;;
7171;SDS011;3627;46.544;14.944;2022-11-20T07:25:27;3.50;;;2.60;;
7171;SDS011;3627;46.544;14.944;2022-11-20T07:27:56;7.32;;;3.85;;
7171;SDS011;3627;46.544;14.944;2022-11-20T07:30:22;10.70;;;5.15;;
7171;SDS011;3627;46.544;14.944;2022-11-20T07:32:51;6.35;;;3.55;;
7171;SDS011;3627;46.544;14.944;2022-11-20T07:35:18;2.77;;;2.57;;
7171;SDS011;3627;46.544;14.944;2022-11-20T07:37:44;4.20;;;2.40;;
7171;SDS011;3627;46.544;14.944;2022-11-20T07:40:12;3.10;;;2.72;;
7171;SDS011;3627;46.544;14.944;2022-11-20T07:42:38;6.15;;;3.00;;
7171;SDS011;3627;46.544;14.944;2022-11-20T07:45:05;4.50;;;3.75;;
7171;SDS011;3627;46.544;14.944;2022-11-20T07:47:34;3.25;;;2.80;;
7171;SDS011;3627;46.544;14.944;2022-11-20T07:50:02;5.72;;;4.00;;
7171;SDS011;3627;46.544;14.944;2022-11-20T07:52:28;3.70;;;3.38;;
7171;SDS011;3627;46.544;14.944;2022-11-20T07:54:55;5.07;;;3.50;;
7171;SDS011;3627;46.544;14.944;2022-11-20T07:57:21;5.00;;;4.30;;
7171;SDS011;3627;46.544;14.944;2022-11-20T07:59:48;5.53;;;4.18;;
7171;SDS011;3627;46.544;14.944;2022-11-20T08:02:14;7.40;;;4.50;;
7171;SDS011;3627;46.544;14.944;2022-11-20T08:04:40;7.10;;;4.70;;
7171;SDS011;3627;46.544;14.944;2022-11-20T08:07:08;10.45;;;4.78;;
7171;SDS011;3627;46.544;14.944;2022-11-20T08:09:34;5.30;;;3.97;;
7171;SDS011;3627;46.544;14.944;2022-11-20T08:12:01;5.32;;;4.60;;
7171;SDS011;3627;46.544;14.944;2022-11-20T08:14:45;5.47;;;4.13;;
7171;SDS011;3627;46.544;14.944;2022-11-20T08:17:11;5.40;;;4.53;;
7171;SDS011;3627;46.544;14.944;2022-11-20T08:19:38;5.65;;;4.22;;
7171;SDS011;3627;46.544;14.944;2022-11-20T08:22:04;6.90;;;5.90;;
7171;SDS011;3627;46.544;14.944;2022-11-20T08:24:32;8.00;;;5.60;;
7171;SDS011;3627;46.544;14.944;2022-11-20T08:26:58;5.97;;;5.20;;
7171;SDS011;3627;46.544;14.944;2022-11-20T08:29:25;8.23;;;5.95;;
7171;SDS011;3627;46.544;14.944;2022-11-20T08:31:52;5.72;;;4.85;;
7171;SDS011;3627;46.544;14.944;2022-11-20T08:34:18;7.50;;;5.07;;
7171;SDS011;3627;46.544;14.944;2022-11-20T08:36:44;8.52;;;5.60;;
7171;SDS011;3627;46.544;14.944;2022-11-20T08:39:11;6.60;;;5.18;;
7171;SDS011;3627;46.544;14.944;2022-11-20T08:41:39;5.53;;;4.35;;
7171;SDS011;3627;46.544;14.944;2022-11-20T08:44:06;6.30;;;4.20;;
7171;SDS011;3627;46.544;14.944;2022-11-20T08:46:33;4.82;;;3.65;;
7171;SDS011;3627;46.544;14.944;2022-11-20T08:49:01;5.88;;;3.92;;
7171;SDS011;3627;46.544;14.944;2022-11-20T08:51:27;7.30;;;4.60;;
7171;SDS011;3627;46.544;14.944;2022-11-20T08:53:54;6.70;;;4.65;;
7171;SDS011;3627;46.544;14.944;2022-11-20T08:56:20;5.03;;;3.95;;
7171;SDS011;3627;46.544;14.944;2022-11-20T08:58:49;6.35;;;5.00;;
7171;SDS011;3627;46.544;14.944;2022-11-20T09:01:15;6.60;;;5.03;;
7171;SDS011;3627;46.544;14.944;2022-11-20T09:03:42;6.43;;;4.40;;
7171;SDS011;3627;46.544;14.944;2022-11-20T09:06:08;5.07;;;4.43;;
7171;SDS011;3627;46.544;14.944;2022-11-20T09:08:35;4.93;;;4.18;;
7171;SDS011;3627;46.544;14.944;2022-11-20T09:11:02;5.20;;;4.38;;
7171;SDS011;3627;46.544;14.944;2022-11-20T09:13:28;5.45;;;4.30;;
7171;SDS011;3627;46.544;14.944;2022-11-20T09:15:57;4.55;;;3.95;;
7171;SDS011;3627;46.544;14.944;2022-11-20T09:18:23;4.70;;;4.28;;
7171;SDS011;3627;46.544;14.944;2022-11-20T09:20:50;6.18;;;4.75;;
7171;SDS011;3627;46.544;14.944;2022-11-20T09:23:17;5.47;;;4.55;;
7171;SDS011;3627;46.544;14.944;2022-11-20T09:25:43;8.05;;;5.05;;
7171;SDS011;3627;46.544;14.944;2022-11-20T09:28:10;12.63;;;4.05;;
7171;SDS011;3627;46.544;14.944;2022-11-20T09:30:36;5.50;;;4.22;;
7171;SDS011;3627;46.544;14.944;2022-11-20T09:33:05;4.60;;;3.75;;
7171;SDS011;3627;46.544;14.944;2022-11-20T09:35:32;4.20;;;3.40;;
7171;SDS011;3627;46.544;14.944;2022-11-20T09:38:03;5.10;;;4.07;;
7171;SDS011;3627;46.544;14.944;2022-11-20T09:40:29;4.82;;;3.60;;
7171;SDS011;3627;46.544;14.944;2022-11-20T09:42:57;3.83;;;3.50;;
7171;SDS011;3627;46.544;14.944;2022-11-20T09:45:36;4.35;;;3.63;;
7171;SDS011;3627;46.544;14.944;2022-11-20T09:48:10;3.90;;;3.60;;
7171;SDS011;3627;46.544;14.944;2022-11-20T09:50:39;4.38;;;3.55;;
7171;SDS011;3627;46.544;14.944;2022-11-20T09:53:14;4.03;;;3.45;;
7171;SDS011;3627;46.544;14.944;2022-11-20T09:55:41;7.10;;;3.53;;
7171;SDS011;3627;46.544;14.944;2022-11-20T09:58:12;5.03;;;3.58;;
7171;SDS011;3627;46.544;14.944;2022-11-20T10:00:40;4.15;;;3.22;;
7171;SDS011;3627;46.544;14.944;2022-11-20T10:03:13;5.10;;;3.60;;
7171;SDS011;3627;46.544;14.944;2022-11-20T10:05:41;6.07;;;4.28;;
7171;SDS011;3627;46.544;14.944;2022-11-20T10:08:10;5.38;;;3.97;;
7171;SDS011;3627;46.544;14.944;2022-11-20T10:10:41;5.45;;;3.60;;
7171;SDS011;3627;46.544;14.944;2022-11-20T10:13:16;4.70;;;3.70;;
7171;SDS011;3627;46.544;14.944;2022-11-20T10:15:45;4.22;;;3.38;;
7171;SDS011;3627;46.544;14.944;2022-11-20T10:18:19;4.68;;;3.83;;
7171;SDS011;3627;46.544;14.944;2022-11-20T10:20:50;5.03;;;3.45;;
7171;SDS011;3627;46.544;14.944;2022-11-20T10:23:35;6.40;;;4.35;;
7171;SDS011;3627;46.544;14.944;2022-11-20T10:26:11;4.55;;;3.50;;
7171;SDS011;3627;46.544;14.944;2022-11-20T10:28:46;5.63;;;3.33;;
7171;SDS011;3627;46.544;14.944;2022-11-20T10:31:14;11.50;;;4.75;;
7171;SDS011;3627;46.544;14.944;2022-11-20T10:33:44;8.45;;;4.45;;
7171;SDS011;3627;46.544;14.944;2022-11-20T10:36:15;6.30;;;4.32;;
7171;SDS011;3627;46.544;14.944;2022-11-20T10:38:44;5.00;;;3.58;;
7171;SDS011;3627;46.544;14.944;2022-11-20T10:41:12;7.00;;;4.20;;
7171;SDS011;3627;46.544;14.944;2022-11-20T10:43:52;5.20;;;3.47;;
7171;SDS011;3627;46.544;14.944;2022-11-20T10:46:20;7.45;;;4.07;;
7171;SDS011;3627;46.544;14.944;2022-11-20T10:48:49;5.78;;;3.70;;
7171;SDS011;3627;46.544;14.944;2022-11-20T10:51:18;4.85;;;4.03;;
7171;SDS011;3627;46.544;14.944;2022-11-20T10:53:53;7.43;;;3.72;;
7171;SDS011;3627;46.544;14.944;2022-11-20T10:56:22;4.85;;;3.55;;
7171;SDS011;3627;46.544;14.944;2022-11-20T10:58:54;6.65;;;4.05;;
7171;SDS011;3627;46.544;14.944;2022-11-20T11:01:24;6.03;;;3.45;;
7171;SDS011;3627;46.544;14.944;2022-11-20T11:03:53;6.88;;;3.97;;
7171;SDS011;3627;46.544;14.944;2022-11-20T11:06:21;6.13;;;3.97;;
7171;SDS011;3627;46.544;14.944;2022-11-20T11:08:51;6.10;;;3.88;;
7171;SDS011;3627;46.544;14.944;2022-11-20T11:11:20;9.18;;;4.90;;
7171;SDS011;3627;46.544;14.944;2022-11-20T11:13:48;4.47;;;3.42;;
7171;SDS011;3627;46.544;14.944;2022-11-20T11:16:21;5.72;;;3.65;;
7171;SDS011;3627;46.544;14.944;2022-11-20T11:18:48;6.88;;;3.70;;
7171;SDS011;3627;46.544;14.944;2022-11-20T11:21:21;8.00;;;3.97;;
7171;SDS011;3627;46.544;14.944;2022-11-20T11:23:48;3.45;;;3.13;;
7171;SDS011;3627;46.544;14.944;2022-11-20T11:26:23;5.05;;;3.20;;
7171;SDS011;3627;46.544;14.944;2022-11-20T11:28:53;5.57;;;3.50;;
7171;SDS011;3627;46.544;14.944;2022-11-20T11:31:21;10.23;;;5.18;;
7171;SDS011;3627;46.544;14.944;2022-11-20T11:33:48;9.05;;;4.10;;
7171;SDS011;3627;46.544;14.944;2022-11-20T11:36:16;9.45;;;4.95;;
7171;SDS011;3627;46.544;14.944;2022-11-20T11:38:45;7.47;;;4.70;;
7171;SDS011;3627;46.544;14.944;2022-11-20T11:41:12;4.18;;;3.38;;
7171;SDS011;3627;46.544;14.944;2022-11-20T11:43:48;5.30;;;3.67;;
7171;SDS011;3627;46.544;14.944;2022-11-20T11:46:34;4.68;;;3.20;;
7171;SDS011;3627;46.544;14.944;2022-11-20T11:49:08;4.25;;;3.50;;
7171;SDS011;3627;46.544;14.944;2022-11-20T11:51:39;5.53;;;3.78;;
7171;SDS011;3627;46.544;14.944;2022-11-20T11:54:14;4.97;;;3.13;;
7171;SDS011;3627;46.544;14.944;2022-11-20T11:56:42;3.78;;;3.13;;
7171;SDS011;3627;46.544;14.944;2022-11-20T11:59:09;3.80;;;3.35;;
7171;SDS011;3627;46.544;14.944;2022-11-20T12:01:40;5.40;;;3.45;;
7171;SDS011;3627;46.544;14.944;2022-11-20T12:04:11;5.72;;;3.28;;
7171;SDS011;3627;46.544;14.944;2022-11-20T12:06:39;4.05;;;3.05;;
7171;SDS011;3627;46.544;14.944;2022-11-20T12:09:08;4.55;;;3.20;;
7171;SDS011;3627;46.544;14.944;2022-11-20T12:11:38;5.13;;;4.07;;
7171;SDS011;3627;46.544;14.944;2022-11-20T12:14:09;6.57;;;4.53;;
7171;SDS011;3627;46.544;14.944;2022-11-20T12:16:38;5.10;;;3.45;;
7171;SDS011;3627;46.544;14.944;2022-11-20T12:19:07;4.85;;;3.17;;
7171;SDS011;3627;46.544;14.944;2022-11-20T12:21:36;5.70;;;3.45;;
7171;SDS011;3627;46.544;14.944;2022-11-20T12:24:11;8.05;;;3.72;;
7171;SDS011;3627;46.544;14.944;2022-11-20T12:26:45;8.50;;;4.10;;
7171;SDS011;3627;46.544;14.944;2022-11-20T12:29:16;6.35;;;4.18;;
7171;SDS011;3627;46.544;14.944;2022-11-20T12:31:51;7.72;;;4.35;;
7171;SDS011;3627;46.544;14.944;2022-11-20T12:34:27;9.75;;;4.70;;
7171;SDS011;3627;46.544;14.944;2022-11-20T12:37:00;5.72;;;3.70;;
7171;SDS011;3627;46.544;14.944;2022-11-20T12:39:33;7.35;;;3.53;;
7171;SDS011;3627;46.544;14.944;2022-11-20T12:42:05;3.72;;;3.22;;
7171;SDS011;3627;46.544;14.944;2022-11-20T12:45:02;2.75;;;2.53;;
7171;SDS011;3627;46.544;14.944;2022-11-20T12:47:39;3.58;;;2.85;;
7171;SDS011;3627;46.544;14.944;2022-11-20T12:50:11;5.30;;;3.10;;
7171;SDS011;3627;46.544;14.944;2022-11-20T12:52:42;5.53;;;3.95;;
7171;SDS011;3627;46.544;14.944;2022-11-20T12:55:16;6.43;;;4.60;;
7171;SDS011;3627;46.544;14.944;2022-11-20T12:57:49;14.85;;;6.78;;
7171;SDS011;3627;46.544;14.944;2022-11-20T13:00:17;6.80;;;5.07;;
7171;SDS011;3627;46.544;14.944;2022-11-20T13:05:31;4.25;;;3.53;;
7171;SDS011;3627;46.544;14.944;2022-11-20T13:08:02;4.45;;;3.90;;
7171;SDS011;3627;46.544;14.944;2022-11-20T13:10:31;4.07;;;3.33;;
7171;SDS011;3627;46.544;14.944;2022-11-20T13:13:01;3.70;;;3.10;;
7171;SDS011;3627;46.544;14.944;2022-11-20T13:15:34;6.20;;;3.65;;
7171;SDS011;3627;46.544;14.944;2022-11-20T13:18:03;3.83;;;2.70;;
7171;SDS011;3627;46.544;14.944;2022-11-20T13:20:30;3.42;;;3.13;;
7171;SDS011;3627;46.544;14.944;2022-11-20T13:22:57;4.10;;;3.22;;
7171;SDS011;3627;46.544;14.944;2022-11-20T13:25:24;5.40;;;3.85;;
7171;SDS011;3627;46.544;14.944;2022-11-20T13:27:51;8.70;;;2.97;;
7171;SDS011;3627;46.544;14.944;2022-11-20T13:32:49;5.22;;;3.70;;
7171;SDS011;3627;46.544;14.944;2022-11-20T13:35:23;6.03;;;4.03;;
7171;SDS011;3627;46.544;14.944;2022-11-20T13:37:58;10.63;;;5.57;;
7171;SDS011;3627;46.544;14.944;2022-11-20T13:40:25;5.55;;;4.00;;
7171;SDS011;3627;46.544;14.944;2022-11-20T13:42:54;4.05;;;2.97;;
7171;SDS011;3627;46.544;14.944;2022-11-20T13:45:22;4.10;;;2.95;;
7171;SDS011;3627;46.544;14.944;2022-11-20T13:47:50;4.03;;;3.55;;
7171;SDS011;3627;46.544;14.944;2022-11-20T13:50:17;4.72;;;3.30;;
7171;SDS011;3627;46.544;14.944;2022-11-20T13:52:50;8.45;;;4.20;;
7171;SDS011;3627;46.544;14.944;2022-11-20T13:55:20;5.78;;;3.72;;
7171;SDS011;3627;46.544;14.944;2022-11-20T13:57:55;5.97;;;4.03;;
7171;SDS011;3627;46.544;14.944;2022-11-20T14:00:24;8.52;;;4.25;;
7171;SDS011;3627;46.544;14.944;2022-11-20T14:03:08;6.38;;;3.92;;
7171;SDS011;3627;46.544;14.944;2022-11-20T14:05:38;3.58;;;2.78;;
7171;SDS011;3627;46.544;14.944;2022-11-20T14:08:06;3.25;;;2.83;;
7171;SDS011;3627;46.544;14.944;2022-11-20T14:10:32;5.45;;;3.85;;
7171;SDS011;3627;46.544;14.944;2022-11-20T14:13:09;7.47;;;4.25;;
7171;SDS011;3627;46.544;14.944;2022-11-20T14:15:35;8.93;;;4.40;;
7171;SDS011;3627;46.544;14.944;2022-11-20T14:18:12;5.05;;;3.75;;
7171;SDS011;3627;46.544;14.944;2022-11-20T14:20:39;7.75;;;4.70;;
7171;SDS011;3627;46.544;14.944;2022-11-20T14:23:07;9.02;;;5.85;;
7171;SDS011;3627;46.544;14.944;2022-11-20T14:25:35;10.32;;;6.35;;
7171;SDS011;3627;46.544;14.944;2022-11-20T14:28:02;12.45;;;5.40;;
7171;SDS011;3627;46.544;14.944;2022-11-20T14:30:35;6.15;;;4.60;;
7171;SDS011;3627;46.544;14.944;2022-11-20T14:33:03;3.28;;;2.97;;
7171;SDS011;3627;46.544;14.944;2022-11-20T14:35:34;3.92;;;3.10;;
7171;SDS011;3627;46.544;14.944;2022-11-20T14:38:00;3.58;;;3.28;;
7171;SDS011;3627;46.544;14.944;2022-11-20T14:40:28;10.43;;;4.95;;
7171;SDS011;3627;46.544;14.944;2022-11-20T14:42:55;10.20;;;5.90;;
7171;SDS011;3627;46.544;14.944;2022-11-20T14:45:22;8.77;;;4.95;;
7171;SDS011;3627;46.544;14.944;2022-11-20T14:47:48;9.23;;;6.20;;
7171;SDS011;3627;46.544;14.944;2022-11-20T14:50:17;6.93;;;5.18;;
7171;SDS011;3627;46.544;14.944;2022-11-20T14:52:53;6.13;;;3.75;;
7171;SDS011;3627;46.544;14.944;2022-11-20T14:55:26;5.07;;;3.78;;
7171;SDS011;3627;46.544;14.944;2022-11-20T14:57:56;4.88;;;2.83;;
7171;SDS011;3627;46.544;14.944;2022-11-20T15:00:23;2.88;;;2.63;;
7171;SDS011;3627;46.544;14.944;2022-11-20T15:02:50;6.18;;;4.32;;
7171;SDS011;3627;46.544;14.944;2022-11-20T15:05:17;3.83;;;2.83;;
7171;SDS011;3627;46.544;14.944;2022-11-20T15:07:45;3.38;;;2.63;;
7171;SDS011;3627;46.544;14.944;2022-11-20T15:10:19;2.50;;;2.30;;
7171;SDS011;3627;46.544;14.944;2022-11-20T15:12:46;4.18;;;2.92;;